Time,TemperatureF,DewpointF,PressureIn,WindDirection,WindDirectionDegrees,WindSpeedMPH,WindSpeedGustMPH,Humidity,HourlyPrecipIn,Conditions,Clouds,dailyrainin,SoftwareType,DateUTC
2013-07-02 00:06:00,68.9,47.2,30.12,ESE,120,0.0,0.0,46,0.00,,,-99.99,Weather View 32 v70,2013-07-02 05:06:00,
2013-07-02 00:11:00,68.7,47.0,30.12,ESE,120,0.0,0.0,46,0.00,,,-99.99,Weather View 32 v70,2013-07-02 05:11:00,
2013-07-02 00:16:00,68.5,46.9,30.12,ESE,120,0.0,0.0,46,0.00,,,-99.99,Weather View 32 v70,2013-07-02 05:16:00,
2013-07-02 00:26:00,68.5,47.5,30.12,ESE,120,0.0,0.0,47,0.00,,,-99.99,Weather View 32 v70,2013-07-02 05:26:00,
2013-07-02 00:36:00,68.7,48.2,30.12,ESE,120,0.0,0.0,48,0.00,,,-99.99,Weather View 32 v70,2013-07-02 05:36:00,
2013-07-02 00:46:00,68.7,49.3,30.12,ESE,120,0.0,0.0,50,0.00,,,-99.99,Weather View 32 v70,2013-07-02 05:46:00,
2013-07-02 00:56:00,68.5,50.2,30.12,ESE,120,0.0,0.0,52,0.00,,,-99.99,Weather View 32 v70,2013-07-02 05:56:00,
2013-07-02 01:01:00,68.5,50.2,30.12,ESE,120,0.0,0.0,52,0.00,,,-99.99,Weather View 32 v70,2013-07-02 06:01:00,
2013-07-02 01:06:00,68.4,50.0,30.12,ESE,120,0.0,0.0,52,0.00,,,-99.99,Weather View 32 v70,2013-07-02 06:06:00,
2013-07-02 01:16:00,68.4,51.0,30.12,ESE,120,0.0,0.0,54,0.00,,,-99.99,Weather View 32 v70,2013-07-02 06:16:00,
2013-07-02 01:26:00,67.8,51.0,30.12,ESE,120,0.0,0.0,55,0.00,,,-99.99,Weather View 32 v70,2013-07-02 06:26:00,
2013-07-02 01:36:00,67.3,51.0,30.12,ESE,120,0.0,0.0,56,0.00,,,-99.99,Weather View 32 v70,2013-07-02 06:36:00,
2013-07-02 01:41:00,67.1,51.3,30.12,ESE,120,0.0,0.0,57,0.00,,,-99.99,Weather View 32 v70,2013-07-02 06:41:00,
2013-07-02 01:46:00,66.9,51.6,30.12,ESE,120,0.0,0.0,58,0.00,,,-99.99,Weather View 32 v70,2013-07-02 06:46:00,
2013-07-02 01:56:00,66.6,51.7,30.12,ESE,120,0.0,0.0,59,0.00,,,-99.99,Weather View 32 v70,2013-07-02 06:56:00,
2013-07-02 02:01:00,66.4,51.6,30.12,ESE,120,0.0,0.0,59,0.00,,,-99.99,Weather View 32 v70,2013-07-02 07:01:00,
2013-07-02 02:06:00,66.4,52.0,30.12,ESE,120,0.0,0.0,60,0.00,,,-99.99,Weather View 32 v70,2013-07-02 07:06:00,
2013-07-02 02:11:00,66.6,52.7,30.12,ESE,120,0.0,0.0,61,0.00,,,-99.99,Weather View 32 v70,2013-07-02 07:11:00,
2013-07-02 02:21:00,66.4,52.5,30.12,ESE,120,0.0,0.0,61,0.00,,,-99.99,Weather View 32 v70,2013-07-02 07:21:00,
2013-07-02 02:31:00,66.2,52.3,30.12,ESE,120,0.0,0.0,61,0.00,,,-99.99,Weather View 32 v70,2013-07-02 07:31:00,
2013-07-02 02:41:00,66.0,53.0,30.12,ESE,120,0.0,0.0,63,0.00,,,-99.99,Weather View 32 v70,2013-07-02 07:41:00,
2013-07-02 02:50:00,66.0,53.0,30.12,ESE,120,0.0,0.0,63,0.00,,,-99.99,Weather View 32 v70,2013-07-02 07:50:00,
2013-07-02 02:56:00,65.8,53.3,30.12,ESE,120,0.0,0.0,64,0.00,,,-99.99,Weather View 32 v70,2013-07-02 07:56:00,
2013-07-02 03:01:00,65.8,53.3,30.12,ESE,122,2.0,4.0,64,0.00,,,-99.99,Weather View 32 v70,2013-07-02 08:01:00,
2013-07-02 03:11:00,66.2,53.6,30.12,ESE,122,0.0,4.0,64,0.00,,,-99.99,Weather View 32 v70,2013-07-02 08:11:00,
2013-07-02 03:21:00,66.2,53.2,30.12,ESE,122,0.0,4.0,63,0.00,,,-99.99,Weather View 32 v70,2013-07-02 08:21:00,
2013-07-02 03:26:00,66.0,53.5,30.12,ESE,122,0.0,4.0,64,0.00,,,-99.99,Weather View 32 v70,2013-07-02 08:26:00,
2013-07-02 03:36:00,65.8,53.3,30.12,ESE,122,0.0,4.0,64,0.00,,,-99.99,Weather View 32 v70,2013-07-02 08:36:00,
2013-07-02 03:46:00,65.5,52.9,30.12,ESE,122,0.0,4.0,64,0.00,,,-99.99,Weather View 32 v70,2013-07-02 08:46:00,
2013-07-02 03:51:00,65.3,52.8,30.12,ESE,121,0.0,4.0,64,0.00,,,-99.99,Weather View 32 v70,2013-07-02 08:51:00,
2013-07-02 03:56:00,65.1,53.0,30.12,ESE,122,0.0,4.0,65,0.00,,,-99.99,Weather View 32 v70,2013-07-02 08:56:00,
2013-07-02 04:01:00,64.8,52.7,30.12,ESE,122,0.0,4.0,65,0.00,,,-99.99,Weather View 32 v70,2013-07-02 09:01:00,
2013-07-02 04:11:00,64.2,52.2,30.12,ESE,122,0.0,0.0,65,0.00,,,-99.99,Weather View 32 v70,2013-07-02 09:11:00,
2013-07-02 04:16:00,64.0,52.4,30.12,ESE,122,0.0,0.0,66,0.00,,,-99.99,Weather View 32 v70,2013-07-02 09:16:00,
2013-07-02 04:21:00,64.0,52.4,30.12,ESE,122,0.0,0.0,66,0.00,,,-99.99,Weather View 32 v70,2013-07-02 09:21:00,
2013-07-02 04:26:00,64.0,52.8,30.12,ESE,122,0.0,0.0,67,0.00,,,-99.99,Weather View 32 v70,2013-07-02 09:26:00,
2013-07-02 04:36:00,64.2,53.0,30.12,ESE,122,0.0,0.0,67,0.00,,,-99.99,Weather View 32 v70,2013-07-02 09:36:00,
2013-07-02 04:46:00,63.9,52.7,30.12,ESE,121,0.0,0.0,67,0.00,,,-99.99,Weather View 32 v70,2013-07-02 09:46:00,
2013-07-02 04:51:00,63.7,52.5,30.12,ESE,122,0.0,0.0,67,0.00,,,-99.99,Weather View 32 v70,2013-07-02 09:51:00,
2013-07-02 05:01:00,63.3,52.1,30.12,ESE,122,0.0,0.0,67,0.00,,,-99.99,Weather View 32 v70,2013-07-02 10:01:00,
2013-07-02 05:06:00,63.3,52.5,30.12,ESE,122,0.0,0.0,68,0.00,,,-99.99,Weather View 32 v70,2013-07-02 10:06:00,
2013-07-02 05:16:00,63.7,53.3,30.12,ESE,122,0.0,0.0,69,0.00,,,-99.99,Weather View 32 v70,2013-07-02 10:16:00,
2013-07-02 05:21:00,63.9,53.5,30.12,ESE,122,0.0,0.0,69,0.00,,,-99.99,Weather View 32 v70,2013-07-02 10:21:00,
2013-07-02 05:31:00,64.0,54.0,30.12,ESE,122,0.0,0.0,70,0.00,,,-99.99,Weather View 32 v70,2013-07-02 10:31:00,
2013-07-02 05:36:00,64.2,54.2,30.12,ESE,122,0.0,0.0,70,0.00,,,-99.99,Weather View 32 v70,2013-07-02 10:36:00,
2013-07-02 05:46:00,64.4,54.4,30.12,ESE,122,0.0,0.0,70,0.00,,,-99.99,Weather View 32 v70,2013-07-02 10:46:00,
2013-07-02 05:52:00,64.6,54.5,30.12,ESE,121,0.0,0.0,70,0.00,,,-99.99,Weather View 32 v70,2013-07-02 10:52:00,
2013-07-02 06:01:00,64.8,54.7,30.12,ESE,122,0.0,0.0,70,0.00,,,-99.99,Weather View 32 v70,2013-07-02 11:01:00,
2013-07-02 06:11:00,64.9,54.9,30.12,ESE,122,0.0,0.0,70,0.00,,,-99.99,Weather View 32 v70,2013-07-02 11:11:00,
2013-07-02 06:16:00,65.1,55.1,30.12,ESE,122,0.0,0.0,70,0.00,,,-99.99,Weather View 32 v70,2013-07-02 11:16:00,
2013-07-02 06:26:00,65.1,55.5,30.12,ESE,122,0.0,0.0,71,0.00,,,-99.99,Weather View 32 v70,2013-07-02 11:26:00,
2013-07-02 06:31:00,65.1,55.5,30.12,ESE,121,0.0,0.0,71,0.00,,,-99.99,Weather View 32 v70,2013-07-02 11:31:00,
2013-07-02 06:41:00,65.5,55.8,30.12,ESE,121,0.0,0.0,71,0.00,,,-99.99,Weather View 32 v70,2013-07-02 11:41:00,
2013-07-02 06:51:00,65.3,55.2,30.12,ESE,122,0.0,0.0,70,0.00,,,-99.99,Weather View 32 v70,2013-07-02 11:51:00,
2013-07-02 06:56:00,65.3,55.2,30.12,ESE,122,0.0,0.0,70,0.00,,,-99.99,Weather View 32 v70,2013-07-02 11:56:00,
2013-07-02 07:06:00,65.7,55.6,30.12,ESE,123,0.0,4.0,70,0.00,,,-99.99,Weather View 32 v70,2013-07-02 12:06:00,
2013-07-02 07:11:00,65.7,55.6,30.12,ESE,122,0.0,4.0,70,0.00,,,-99.99,Weather View 32 v70,2013-07-02 12:11:00,
2013-07-02 07:21:00,66.4,55.9,30.12,ESE,123,0.0,4.0,69,0.00,,,-99.99,Weather View 32 v70,2013-07-02 12:21:00,
2013-07-02 07:26:00,66.6,56.0,30.12,ESE,123,0.0,4.0,69,0.00,,,-99.99,Weather View 32 v70,2013-07-02 12:26:00,
2013-07-02 07:36:00,66.9,56.4,30.12,ESE,122,0.0,4.0,69,0.00,,,-99.99,Weather View 32 v70,2013-07-02 12:36:00,
2013-07-02 07:46:00,67.6,57.1,30.12,ESE,123,0.0,4.0,69,0.00,,,-99.99,Weather View 32 v70,2013-07-02 12:46:00,
2013-07-02 07:53:00,68.0,57.0,30.12,ESE,122,0.0,4.0,68,0.00,,,-99.99,Weather View 32 v70,2013-07-02 12:53:00,
2013-07-02 08:01:00,68.5,57.1,30.12,ESE,123,0.0,0.0,67,0.00,,,-99.99,Weather View 32 v70,2013-07-02 13:01:00,
2013-07-02 08:06:00,68.7,57.3,30.12,ESE,122,0.0,0.0,67,0.00,,,-99.99,Weather View 32 v70,2013-07-02 13:06:00,
2013-07-02 08:16:00,69.4,57.1,30.12,ESE,123,0.0,0.0,65,0.00,,,-99.99,Weather View 32 v70,2013-07-02 13:16:00,
2013-07-02 08:21:00,69.6,56.9,30.12,ESE,122,0.0,0.0,64,0.00,,,-99.99,Weather View 32 v70,2013-07-02 13:21:00,
2013-07-02 08:31:00,70.3,55.8,30.12,ESE,122,0.0,0.0,60,0.00,,,-99.99,Weather View 32 v70,2013-07-02 13:31:00,
2013-07-02 08:36:00,70.7,55.6,30.12,ESE,123,0.0,0.0,59,0.00,,,-99.99,Weather View 32 v70,2013-07-02 13:36:00,
2013-07-02 08:46:00,71.8,54.7,30.12,SE,125,0.0,0.0,55,0.00,,,-99.99,Weather View 32 v70,2013-07-02 13:46:00,
2013-07-02 08:53:00,72.1,53.5,30.12,SE,126,0.0,4.0,52,0.00,,,-99.99,Weather View 32 v70,2013-07-02 13:53:00,
2013-07-02 09:01:00,73.2,54.0,30.12,SE,126,0.0,4.0,51,0.00,,,-99.99,Weather View 32 v70,2013-07-02 14:01:00,
2013-07-02 09:11:00,74.1,53.1,30.12,SE,126,0.0,4.0,48,0.00,,,-99.99,Weather View 32 v70,2013-07-02 14:11:00,
2013-07-02 09:21:00,75.0,53.4,30.12,SE,126,0.0,4.0,47,0.00,,,-99.99,Weather View 32 v70,2013-07-02 14:21:00,
2013-07-02 09:31:00,75.9,53.6,30.12,SE,125,0.0,4.0,46,0.00,,,-99.99,Weather View 32 v70,2013-07-02 14:31:00,
2013-07-02 09:41:00,76.6,51.8,30.12,SE,126,0.0,4.0,42,0.00,,,-99.99,Weather View 32 v70,2013-07-02 14:41:00,
2013-07-02 09:51:00,77.5,53.2,30.12,SE,126,0.0,0.0,43,0.00,,,-99.99,Weather View 32 v70,2013-07-02 14:51:00,
2013-07-02 09:56:00,78.1,53.7,30.12,SE,125,0.0,0.0,43,0.00,,,-99.99,Weather View 32 v70,2013-07-02 14:56:00,
2013-07-02 10:06:00,78.8,53.7,30.12,SE,126,0.0,0.0,42,0.00,,,-99.99,Weather View 32 v70,2013-07-02 15:06:00,
2013-07-02 10:11:00,79.2,53.4,30.12,SE,125,0.0,0.0,41,0.00,,,-99.99,Weather View 32 v70,2013-07-02 15:11:00,
2013-07-02 10:16:00,79.3,52.8,30.12,SE,125,0.0,0.0,40,0.00,,,-99.99,Weather View 32 v70,2013-07-02 15:16:00,
2013-07-02 10:26:00,80.1,52.1,30.12,SE,125,0.0,0.0,38,0.00,,,-99.99,Weather View 32 v70,2013-07-02 15:26:00,
2013-07-02 10:36:00,80.4,50.9,30.12,SE,125,0.0,3.0,36,0.00,,,-99.99,Weather View 32 v70,2013-07-02 15:36:00,
2013-07-02 10:41:00,80.8,51.2,30.12,SE,125,0.0,4.0,36,0.00,,,-99.99,Weather View 32 v70,2013-07-02 15:41:00,
2013-07-02 10:51:00,81.3,51.0,30.12,SE,126,0.0,4.0,35,0.00,,,-99.99,Weather View 32 v70,2013-07-02 15:51:00,
2013-07-02 10:56:00,81.7,51.3,30.12,SE,126,2.0,4.0,35,0.00,,,-99.99,Weather View 32 v70,2013-07-02 15:56:00,
2013-07-02 11:06:00,82.4,50.3,30.12,North,357,3.0,4.0,33,0.00,,,-99.99,Weather View 32 v70,2013-07-02 16:06:00,
2013-07-02 11:11:00,82.6,49.6,30.12,West,280,0.0,4.0,32,0.00,,,-99.99,Weather View 32 v70,2013-07-02 16:11:00,
2013-07-02 11:16:00,82.8,48.9,30.12,West,280,0.0,4.0,31,0.00,,,-99.99,Weather View 32 v70,2013-07-02 16:16:00,
2013-07-02 11:26:00,83.5,49.6,30.12,West,280,0.0,4.0,31,0.00,,,-99.99,Weather View 32 v70,2013-07-02 16:26:00,
2013-07-02 11:36:00,84.2,48.4,30.12,WNW,283,0.0,4.0,29,0.00,,,-99.99,Weather View 32 v70,2013-07-02 16:36:00,
2013-07-02 11:41:00,84.4,48.5,30.12,WNW,283,0.0,4.0,29,0.00,,,-99.99,Weather View 32 v70,2013-07-02 16:41:00,
2013-07-02 11:51:00,84.9,47.1,30.12,WNW,285,0.0,4.0,27,0.00,,,-99.99,Weather View 32 v70,2013-07-02 16:51:00,
2013-07-02 11:56:00,85.3,47.4,30.12,SSW,200,3.0,4.0,27,0.00,,,-99.99,Weather View 32 v70,2013-07-02 16:56:00,
2013-07-02 12:01:00,85.3,45.4,30.09,North,357,3.0,4.0,25,0.00,,,-99.99,Weather View 32 v70,2013-07-02 17:01:00,
2013-07-02 12:15:00,85.3,45.4,30.09,NW,313,2.0,4.0,25,0.00,,,-99.99,Weather View 32 v70,2013-07-02 17:15:00,
2013-07-02 12:20:00,84.9,45.1,30.09,NNW,337,0.0,5.0,25,0.00,,,-99.99,Weather View 32 v70,2013-07-02 17:20:00,
2013-07-02 12:30:00,85.3,46.4,30.09,NNW,331,5.0,6.0,26,0.00,,,-99.99,Weather View 32 v70,2013-07-02 17:30:00,
2013-07-02 12:35:00,85.1,47.3,30.09,WNW,299,3.0,6.0,27,0.00,,,-99.99,Weather View 32 v70,2013-07-02 17:35:00,
2013-07-02 12:45:00,84.6,44.8,30.09,NW,307,3.0,6.0,25,0.00,,,-99.99,Weather View 32 v70,2013-07-02 17:45:00,
2013-07-02 12:50:00,84.7,44.9,30.09,West,280,4.0,6.0,25,0.00,,,-99.99,Weather View 32 v70,2013-07-02 17:50:00,
2013-07-02 13:00:00,85.1,44.1,30.09,NW,323,0.0,6.0,24,0.00,,,-99.99,Weather View 32 v70,2013-07-02 18:00:00,
2013-07-02 13:05:00,86.2,46.1,30.09,North,353,3.0,6.0,25,0.00,,,-99.99,Weather View 32 v70,2013-07-02 18:05:00,
2013-07-02 13:15:00,86.7,46.6,30.09,WNW,299,0.0,6.0,25,0.00,,,-99.99,Weather View 32 v70,2013-07-02 18:15:00,
2013-07-02 13:20:00,87.3,45.9,30.09,NW,310,4.0,6.0,24,0.00,,,-99.99,Weather View 32 v70,2013-07-02 18:20:00,
2013-07-02 13:25:00,87.8,45.3,30.09,NNW,338,3.0,6.0,23,0.00,,,-99.99,Weather View 32 v70,2013-07-02 18:25:00,
2013-07-02 13:35:00,87.8,45.3,30.09,NNW,343,4.0,6.0,23,0.00,,,-99.99,Weather View 32 v70,2013-07-02 18:35:00,
2013-07-02 13:40:00,87.6,45.1,30.09,North,357,0.0,6.0,23,0.00,,,-99.99,Weather View 32 v70,2013-07-02 18:40:00,
2013-07-02 13:50:00,88.2,45.6,30.09,North,357,0.0,6.0,23,0.00,,,-99.99,Weather View 32 v70,2013-07-02 18:50:00,
2013-07-02 14:00:00,88.0,45.4,30.09,West,280,5.0,5.0,23,0.00,,,-99.99,Weather View 32 v70,2013-07-02 19:00:00,
2013-07-02 14:10:00,87.8,45.3,30.09,West,280,0.0,6.0,23,0.00,,,-99.99,Weather View 32 v70,2013-07-02 19:10:00,
2013-07-02 14:15:00,87.6,46.2,30.09,WNW,298,0.0,6.0,24,0.00,,,-99.99,Weather View 32 v70,2013-07-02 19:15:00,
2013-07-02 14:20:00,87.6,46.2,30.09,WNW,283,3.0,6.0,24,0.00,,,-99.99,Weather View 32 v70,2013-07-02 19:20:00,
2013-07-02 14:30:00,88.0,44.2,30.09,North,357,3.0,6.0,22,0.00,,,-99.99,Weather View 32 v70,2013-07-02 19:30:00,
2013-07-02 14:40:00,88.7,46.0,30.09,NNE,17,0.0,6.0,23,0.00,,,-99.99,Weather View 32 v70,2013-07-02 19:40:00,
2013-07-02 14:45:00,88.7,44.8,30.09,ESE,105,2.0,6.0,22,0.00,,,-99.99,Weather View 32 v70,2013-07-02 19:45:00,
2013-07-02 14:55:00,86.7,44.4,30.09,West,261,4.0,7.0,23,0.00,,,-99.99,Weather View 32 v70,2013-07-02 19:55:00,
2013-07-02 15:00:00,86.0,43.8,30.06,WNW,286,4.0,7.0,23,0.00,,,-99.99,Weather View 32 v70,2013-07-02 20:00:00,
2013-07-02 15:10:00,86.5,45.3,30.06,WNW,286,0.0,7.0,24,0.00,,,-99.99,Weather View 32 v70,2013-07-02 20:10:00,
2013-07-02 15:15:00,87.3,45.9,30.06,WNW,288,3.0,7.0,24,0.00,,,-99.99,Weather View 32 v70,2013-07-02 20:15:00,
2013-07-02 15:25:00,88.2,45.6,30.06,WNW,288,3.0,7.0,23,0.00,,,-99.99,Weather View 32 v70,2013-07-02 20:25:00,
2013-07-02 15:35:00,89.2,46.5,30.06,WNW,288,0.0,7.0,23,0.00,,,-99.99,Weather View 32 v70,2013-07-02 20:35:00,
2013-07-02 15:40:00,90.0,47.1,30.06,WSW,238,0.0,7.0,23,0.00,,,-99.99,Weather View 32 v70,2013-07-02 20:40:00,
2013-07-02 15:50:00,89.6,46.8,30.06,NNE,20,3.0,5.0,23,0.00,,,-99.99,Weather View 32 v70,2013-07-02 20:50:00,
2013-07-02 15:55:00,89.1,46.3,30.06,WSW,251,0.0,5.0,23,0.00,,,-99.99,Weather View 32 v70,2013-07-02 20:55:00,
2013-07-02 16:02:00,88.0,45.4,30.06,West,265,4.0,5.0,23,0.00,,,-99.99,Weather View 32 v70,2013-07-02 21:02:00,
2013-07-02 16:10:00,86.4,46.3,30.06,NNW,346,0.0,5.0,25,0.00,,,-99.99,Weather View 32 v70,2013-07-02 21:10:00,
2013-07-02 16:20:00,85.3,46.4,30.06,WSW,246,0.0,6.0,26,0.00,,,-99.99,Weather View 32 v70,2013-07-02 21:20:00,
2013-07-02 16:25:00,85.1,47.3,30.06,WSW,241,0.0,6.0,27,0.00,,,-99.99,Weather View 32 v70,2013-07-02 21:25:00,
2013-07-02 16:35:00,86.5,48.5,30.06,South,183,0.0,6.0,27,0.00,,,-99.99,Weather View 32 v70,2013-07-02 21:35:00,
2013-07-02 16:40:00,87.6,48.4,30.06,SW,215,3.0,6.0,26,0.00,,,-99.99,Weather View 32 v70,2013-07-02 21:40:00,
2013-07-02 16:50:00,89.1,48.5,30.03,ESE,123,0.0,6.0,25,0.00,,,-99.99,Weather View 32 v70,2013-07-02 21:50:00,
2013-07-02 17:00:00,90.1,48.4,30.03,SW,222,2.0,6.0,24,0.00,,,-99.99,Weather View 32 v70,2013-07-02 22:00:00,
2013-07-02 17:05:00,90.1,47.2,30.03,SSE,167,0.0,6.0,23,0.00,,,-99.99,Weather View 32 v70,2013-07-02 22:05:00,
2013-07-02 17:10:00,90.3,47.4,30.03,WSW,241,3.0,6.0,23,0.00,,,-99.99,Weather View 32 v70,2013-07-02 22:10:00,
2013-07-02 17:20:00,90.5,48.7,30.03,WNW,302,0.0,4.0,24,0.00,,,-99.99,Weather View 32 v70,2013-07-02 22:20:00,
2013-07-02 17:25:00,90.3,47.4,30.03,ESE,110,3.0,4.0,23,0.00,,,-99.99,Weather View 32 v70,2013-07-02 22:25:00,
2013-07-02 17:35:00,89.6,45.6,30.03,NNW,344,2.0,5.0,22,0.00,,,-99.99,Weather View 32 v70,2013-07-02 22:35:00,
2013-07-02 17:40:00,88.2,45.6,30.03,ENE,72,2.0,5.0,23,0.00,,,-99.99,Weather View 32 v70,2013-07-02 22:40:00,
2013-07-02 17:50:00,88.2,45.6,30.03,East,85,0.0,5.0,23,0.00,,,-99.99,Weather View 32 v70,2013-07-02 22:50:00,
2013-07-02 17:55:00,88.5,45.9,30.03,East,86,0.0,5.0,23,0.00,,,-99.99,Weather View 32 v70,2013-07-02 22:55:00,
2013-07-02 18:00:00,88.9,46.2,30.03,East,86,0.0,5.0,23,0.00,,,-99.99,Weather View 32 v70,2013-07-02 23:00:00,
2013-07-02 18:10:00,90.1,47.2,30.03,East,85,0.0,5.0,23,0.00,,,-99.99,Weather View 32 v70,2013-07-02 23:10:00,
2013-07-02 18:16:00,90.3,47.4,30.03,East,88,0.0,5.0,23,0.00,,,-99.99,Weather View 32 v70,2013-07-02 23:16:00,
2013-07-02 18:21:00,90.3,46.2,30.03,East,91,0.0,5.0,22,0.00,,,-99.99,Weather View 32 v70,2013-07-02 23:21:00,
2013-07-02 18:31:00,90.3,46.2,30.03,North,353,0.0,5.0,22,0.00,,,-99.99,Weather View 32 v70,2013-07-02 23:31:00,
2013-07-02 18:36:00,90.0,45.9,30.03,North,353,0.0,4.0,22,0.00,,,-99.99,Weather View 32 v70,2013-07-02 23:36:00,
2013-07-02 18:46:00,89.8,45.7,30.03,NE,48,0.0,4.0,22,0.00,,,-99.99,Weather View 32 v70,2013-07-02 23:46:00,
2013-07-02 18:51:00,89.6,45.6,30.03,SE,135,3.0,4.0,22,0.00,,,-99.99,Weather View 32 v70,2013-07-02 23:51:00,
2013-07-02 19:01:00,89.1,46.3,30.03,NW,324,0.0,4.0,23,0.00,,,-99.99,Weather View 32 v70,2013-07-03 00:01:00,
2013-07-02 19:06:00,88.9,47.3,30.03,SW,236,0.0,4.0,24,0.00,,,-99.99,Weather View 32 v70,2013-07-03 00:06:00,
2013-07-02 19:11:00,88.2,45.6,30.03,SW,226,3.0,4.0,23,0.00,,,-99.99,Weather View 32 v70,2013-07-03 00:11:00,
2013-07-02 19:21:00,87.4,46.1,30.00,SW,225,0.0,4.0,24,0.00,,,-99.99,Weather View 32 v70,2013-07-03 00:21:00,
2013-07-02 19:26:00,87.4,46.1,30.00,SW,228,0.0,4.0,24,0.00,,,-99.99,Weather View 32 v70,2013-07-03 00:26:00,
2013-07-02 19:31:00,87.4,46.1,30.00,SW,228,0.0,4.0,24,0.00,,,-99.99,Weather View 32 v70,2013-07-03 00:31:00,
2013-07-02 19:36:00,87.4,46.1,30.00,SSW,206,0.0,4.0,24,0.00,,,-99.99,Weather View 32 v70,2013-07-03 00:36:00,
2013-07-02 19:46:00,87.6,46.2,30.00,SE,132,0.0,4.0,24,0.00,,,-99.99,Weather View 32 v70,2013-07-03 00:46:00,
2013-07-02 19:51:00,87.4,46.1,30.00,North,11,0.0,4.0,24,0.00,,,-99.99,Weather View 32 v70,2013-07-03 00:51:00,
2013-07-02 20:01:00,87.1,45.8,30.00,North,10,0.0,4.0,24,0.00,,,-99.99,Weather View 32 v70,2013-07-03 01:01:00,
2013-07-02 20:06:00,86.5,46.4,30.00,ENE,66,0.0,4.0,25,0.00,,,-99.99,Weather View 32 v70,2013-07-03 01:06:00,
2013-07-02 20:11:00,85.8,46.9,30.00,East,90,0.0,4.0,26,0.00,,,-99.99,Weather View 32 v70,2013-07-03 01:11:00,
2013-07-02 20:16:00,85.6,46.7,30.00,East,91,0.0,4.0,26,0.00,,,-99.99,Weather View 32 v70,2013-07-03 01:16:00,
2013-07-02 20:21:00,85.3,47.4,30.00,ESE,120,0.0,4.0,27,0.00,,,-99.99,Weather View 32 v70,2013-07-03 01:21:00,
2013-07-02 20:26:00,85.1,47.3,30.00,ESE,121,0.0,4.0,27,0.00,,,-99.99,Weather View 32 v70,2013-07-03 01:26:00,
2013-07-02 20:36:00,84.4,48.5,30.00,SE,130,0.0,4.0,29,0.00,,,-99.99,Weather View 32 v70,2013-07-03 01:36:00,
2013-07-02 20:41:00,84.0,49.1,30.00,SE,130,0.0,3.0,30,0.00,,,-99.99,Weather View 32 v70,2013-07-03 01:41:00,
2013-07-02 20:46:00,83.7,48.8,30.00,SE,130,0.0,3.0,30,0.00,,,-99.99,Weather View 32 v70,2013-07-03 01:46:00,
2013-07-02 20:51:00,83.1,48.4,30.00,SE,130,0.0,3.0,30,0.00,,,-99.99,Weather View 32 v70,2013-07-03 01:51:00,
2013-07-02 21:01:00,82.2,48.5,30.00,SE,130,0.0,3.0,31,0.00,,,-99.99,Weather View 32 v70,2013-07-03 02:01:00,
2013-07-02 21:06:00,81.7,48.9,30.00,SE,130,0.0,3.0,32,0.00,,,-99.99,Weather View 32 v70,2013-07-03 02:06:00,
2013-07-02 21:21:00,80.4,48.6,30.00,SE,130,0.0,3.0,33,0.00,,,-99.99,Weather View 32 v70,2013-07-03 02:21:00,
2013-07-02 21:31:00,79.9,48.9,30.00,SE,130,0.0,0.0,34,0.00,,,-99.99,Weather View 32 v70,2013-07-03 02:31:00,
2013-07-02 21:46:00,78.8,49.5,30.00,SE,130,0.0,0.0,36,0.00,,,-99.99,Weather View 32 v70,2013-07-03 02:46:00,
2013-07-02 21:56:00,78.3,49.8,30.00,SE,130,0.0,0.0,37,0.00,,,-99.99,Weather View 32 v70,2013-07-03 02:56:00,
2013-07-02 22:01:00,77.9,50.2,30.00,SE,130,0.0,0.0,38,0.00,,,-99.99,Weather View 32 v70,2013-07-03 03:01:00,
2013-07-02 22:06:00,77.7,50.7,30.00,SE,130,0.0,0.0,39,0.00,,,-99.99,Weather View 32 v70,2013-07-03 03:06:00,
2013-07-02 22:16:00,77.0,50.8,30.03,SE,130,0.0,0.0,40,0.00,,,-99.99,Weather View 32 v70,2013-07-03 03:16:00,
2013-07-02 22:21:00,76.6,51.1,30.03,SE,130,0.0,0.0,41,0.00,,,-99.99,Weather View 32 v70,2013-07-03 03:21:00,
2013-07-02 22:26:00,76.5,51.6,30.03,SE,130,0.0,0.0,42,0.00,,,-99.99,Weather View 32 v70,2013-07-03 03:26:00,
2013-07-02 22:31:00,76.3,51.4,30.03,SE,130,0.0,0.0,42,0.00,,,-99.99,Weather View 32 v70,2013-07-03 03:31:00,
2013-07-02 22:36:00,75.9,51.1,30.03,SE,130,0.0,0.0,42,0.00,,,-99.99,Weather View 32 v70,2013-07-03 03:36:00,
2013-07-02 22:51:00,75.2,51.1,30.03,SE,130,0.0,0.0,43,0.00,,,-99.99,Weather View 32 v70,2013-07-03 03:51:00,
2013-07-02 22:56:00,74.8,50.8,30.03,SE,130,0.0,0.0,43,0.00,,,-99.99,Weather View 32 v70,2013-07-03 03:56:00,
2013-07-02 23:01:00,74.5,51.1,30.03,SE,130,0.0,0.0,44,0.00,,,-99.99,Weather View 32 v70,2013-07-03 04:01:00,
2013-07-02 23:06:00,74.3,50.9,30.03,SE,130,0.0,0.0,44,0.00,,,-99.99,Weather View 32 v70,2013-07-03 04:06:00,
2013-07-02 23:07:00,74.3,50.9,30.03,SE,130,0.0,0.0,44,0.00,,,-99.99,Weather View 32 v70,2013-07-03 04:07:00,
2013-07-02 23:11:00,74.3,52.1,30.03,South,176,2.0,3.0,46,0.00,,,-99.99,Weather View 32 v70,2013-07-03 04:11:00,
2013-07-02 23:16:00,74.1,52.0,30.03,South,176,0.0,3.0,46,0.00,,,-99.99,Weather View 32 v70,2013-07-03 04:16:00,
2013-07-02 23:26:00,73.4,51.9,30.03,South,176,0.0,3.0,47,0.00,,,-99.99,Weather View 32 v70,2013-07-03 04:26:00,
2013-07-02 23:36:00,72.9,52.5,30.00,South,176,0.0,3.0,49,0.00,,,-99.99,Weather View 32 v70,2013-07-03 04:36:00,
2013-07-02 23:41:00,72.5,52.2,30.00,South,176,0.0,3.0,49,0.00,,,-99.99,Weather View 32 v70,2013-07-03 04:41:00,
2013-07-02 23:51:00,72.1,52.4,30.00,South,176,0.0,3.0,50,0.00,,,-99.99,Weather View 32 v70,2013-07-03 04:51:00,
2013-07-02 23:56:00,72.0,52.8,30.00,South,176,0.0,3.0,51,0.00,,,-99.99,Weather View 32 v70,2013-07-03 04:56:00,